createdAt,value
2018-06-04T00:00:16.337Z,17.69
2018-06-04T00:01:16.341Z,17.85
2018-06-04T00:02:16.357Z,17.70
2018-06-04T00:03:16.370Z,17.64
2018-06-04T00:04:16.381Z,17.55
2018-06-04T00:05:16.394Z,17.48
2018-06-04T00:06:16.404Z,17.32
2018-06-04T00:07:16.416Z,17.38
2018-06-04T00:08:16.430Z,17.29
2018-06-04T00:09:16.489Z,17.30
2018-06-04T00:10:16.453Z,17.23
2018-06-04T00:11:16.470Z,17.11
2018-06-04T00:12:16.476Z,17.15
2018-06-04T00:13:16.493Z,17.10
2018-06-04T00:14:16.500Z,17.14
2018-06-04T00:15:16.515Z,17.10
2018-06-04T00:16:16.571Z,17.25
2018-06-04T00:17:16.542Z,17.22
2018-06-04T00:18:16.554Z,17.13
2018-06-04T00:19:16.566Z,17.11
2018-06-04T00:20:16.575Z,17.13
2018-06-04T00:21:16.592Z,17.18
2018-06-04T00:22:16.596Z,17.23
2018-06-04T00:23:16.616Z,17.30
2018-06-04T00:24:16.632Z,17.29
2018-06-04T00:25:16.634Z,17.33
2018-06-04T00:26:16.641Z,17.28
2018-06-04T00:27:16.659Z,17.22
2018-06-04T00:28:16.668Z,17.28
2018-06-04T00:29:16.680Z,17.17
2018-06-04T00:30:16.692Z,17.15
2018-06-04T00:31:16.705Z,17.15
2018-06-04T00:32:16.744Z,17.18
2018-06-04T00:33:16.728Z,17.15
2018-06-04T00:34:16.740Z,17.08
2018-06-04T00:35:16.752Z,17.18
2018-06-04T00:36:16.767Z,17.23
2018-06-04T00:37:16.777Z,17.20
2018-06-04T00:38:16.783Z,17.20
2018-06-04T00:39:16.802Z,17.15
2018-06-04T00:40:16.821Z,17.14
2018-06-04T00:41:16.823Z,17.04
2018-06-04T00:42:16.835Z,17.13
2018-06-04T00:43:16.848Z,17.00
2018-06-04T00:44:16.858Z,17.10
2018-06-04T00:45:16.872Z,17.14
2018-06-04T00:46:16.883Z,17.23
2018-06-04T00:47:16.905Z,17.13
2018-06-04T00:48:16.907Z,17.14
2018-06-04T00:49:16.917Z,17.33
2018-06-04T00:50:16.930Z,17.15
2018-06-04T00:51:16.942Z,17.08
2018-06-04T00:52:16.955Z,17.14
2018-06-04T00:53:16.968Z,17.23
2018-06-04T00:54:23.653Z,17.15
2018-06-04T00:55:16.992Z,17.13
2018-06-04T00:56:17.000Z,17.04
2018-06-04T00:57:17.014Z,17.08
2018-06-04T00:58:17.025Z,17.08
2018-06-04T00:59:17.038Z,16.88
2018-06-04T01:00:17.048Z,16.89
2018-06-04T01:01:17.065Z,16.80
2018-06-04T01:02:17.073Z,16.83
2018-06-04T01:03:17.087Z,16.85
2018-06-04T01:04:17.098Z,16.85
2018-06-04T01:05:17.111Z,16.85
2018-06-04T01:06:17.125Z,16.85
2018-06-04T01:07:17.133Z,16.92
2018-06-04T01:08:17.146Z,16.90
2018-06-04T01:09:17.160Z,16.88
2018-06-04T01:10:17.167Z,16.75
2018-06-04T01:11:17.178Z,16.85
2018-06-04T01:12:17.192Z,16.88
2018-06-04T01:13:17.202Z,16.88
2018-06-04T01:14:17.213Z,16.85
2018-06-04T01:15:17.229Z,16.90
2018-06-04T01:16:17.240Z,16.93
2018-06-04T01:17:17.247Z,16.99
2018-06-04T01:18:17.265Z,17.00
2018-06-04T01:19:17.270Z,17.14
2018-06-04T01:20:17.285Z,17.22
2018-06-04T01:21:17.297Z,17.15
2018-06-04T01:22:17.310Z,17.06
2018-06-04T01:23:17.325Z,16.98
2018-06-04T01:24:17.333Z,16.89
2018-06-04T01:25:17.349Z,16.78
2018-06-04T01:26:17.357Z,16.65
2018-06-04T01:27:17.369Z,16.62
2018-06-04T01:28:17.382Z,16.49
2018-06-04T01:29:17.400Z,16.41
2018-06-04T01:30:17.401Z,16.34
2018-06-04T01:31:17.422Z,16.34
2018-06-04T01:32:17.424Z,16.23
2018-06-04T01:33:17.435Z,16.11
2018-06-04T01:34:17.449Z,16.16
2018-06-04T01:35:17.462Z,16.18
2018-06-04T01:36:17.491Z,16.20
2018-06-04T01:37:17.482Z,16.35
2018-06-04T01:38:17.496Z,16.40
2018-06-04T01:39:17.509Z,16.37
2018-06-04T01:40:17.521Z,16.53
2018-06-04T01:41:17.531Z,16.60
2018-06-04T01:42:17.559Z,16.60
2018-06-04T01:43:17.555Z,16.62
2018-06-04T01:44:17.566Z,16.59
2018-06-04T01:45:17.577Z,16.65
2018-06-04T01:46:17.586Z,16.67
2018-06-04T01:47:17.626Z,16.63
2018-06-04T01:48:17.611Z,16.58
2018-06-04T01:49:17.620Z,16.60
2018-06-04T01:50:17.645Z,16.65
2018-06-04T01:51:17.649Z,16.77
2018-06-04T01:52:17.659Z,16.74
2018-06-04T01:53:17.669Z,16.74
2018-06-04T01:54:17.684Z,16.73
2018-06-04T01:55:17.694Z,16.65
2018-06-04T01:56:17.705Z,16.45
2018-06-04T01:57:17.715Z,16.56
2018-06-04T01:58:17.731Z,16.65
2018-06-04T01:59:17.740Z,16.70
2018-06-04T02:00:17.757Z,16.59
2018-06-04T02:01:17.764Z,16.37
2018-06-04T02:02:17.772Z,16.42
2018-06-04T02:03:17.790Z,16.62
2018-06-04T02:04:17.800Z,16.65
2018-06-04T02:05:17.811Z,16.62
2018-06-04T02:06:17.816Z,16.59
2018-06-04T02:07:17.833Z,16.55
2018-06-04T02:08:17.845Z,16.37
2018-06-04T02:09:17.855Z,16.15
2018-06-04T02:10:17.864Z,16.01
2018-06-04T02:11:17.885Z,16.09
2018-06-04T02:12:17.892Z,16.14
2018-06-04T02:13:17.901Z,15.99
2018-06-04T02:14:17.913Z,15.99
2018-06-04T02:15:17.922Z,16.01
2018-06-04T02:16:17.936Z,16.01
2018-06-04T02:17:17.951Z,16.18
2018-06-04T02:18:17.958Z,16.18
2018-06-04T02:19:17.969Z,16.25
2018-06-04T02:20:17.980Z,16.18
2018-06-04T02:21:18.000Z,16.11
2018-06-04T02:22:18.004Z,16.03
2018-06-04T02:23:18.017Z,16.00
2018-06-04T02:24:18.028Z,16.04
2018-06-04T02:25:18.060Z,16.18
2018-06-04T02:26:18.050Z,16.15
2018-06-04T02:27:18.063Z,16.09
2018-06-04T02:28:18.076Z,16.12
2018-06-04T02:29:18.085Z,16.11
2018-06-04T02:30:18.097Z,16.20
2018-06-04T02:31:18.110Z,16.26
2018-06-04T02:32:18.120Z,16.34
2018-06-04T02:33:18.128Z,16.26
2018-06-04T02:34:18.142Z,16.27
2018-06-04T02:35:18.155Z,16.27
2018-06-04T02:36:18.166Z,16.20
2018-06-04T02:37:18.178Z,16.26
2018-06-04T02:38:18.189Z,16.25
2018-06-04T02:39:18.201Z,16.25
2018-06-04T02:40:18.212Z,16.25
2018-06-04T02:41:18.220Z,16.22
2018-06-04T02:42:18.233Z,16.14
2018-06-04T02:43:18.252Z,16.14
2018-06-04T02:44:18.264Z,16.11
2018-06-04T02:45:18.270Z,16.12
2018-06-04T02:46:18.284Z,16.09
2018-06-04T02:47:18.287Z,16.14
2018-06-04T02:48:18.300Z,16.11
2018-06-04T02:49:18.313Z,16.04
2018-06-04T02:50:18.321Z,16.00
2018-06-04T02:51:18.333Z,16.01
2018-06-04T02:52:18.351Z,16.11
2018-06-04T02:53:18.359Z,16.07
2018-06-04T02:54:18.369Z,16.09
2018-06-04T02:55:18.378Z,16.03
2018-06-04T02:56:18.397Z,16.03
2018-06-04T02:57:18.400Z,16.20
2018-06-04T02:58:18.412Z,16.04
2018-06-04T02:59:18.423Z,16.14
2018-06-04T03:00:18.437Z,16.04
2018-06-04T03:01:18.443Z,15.97
2018-06-04T03:02:18.457Z,15.85
2018-06-04T03:03:18.468Z,15.70
2018-06-04T03:04:18.479Z,15.74
2018-06-04T03:05:18.491Z,15.72
2018-06-04T03:06:18.501Z,15.64
2018-06-04T03:07:18.513Z,15.59
2018-06-04T03:08:18.523Z,15.60
2018-06-04T03:09:18.536Z,15.63
2018-06-04T03:10:18.552Z,15.70
2018-06-04T03:11:18.566Z,15.68
2018-06-04T03:12:18.568Z,15.60
2018-06-04T03:13:18.586Z,15.54
2018-06-04T03:14:18.595Z,15.70
2018-06-04T03:15:18.603Z,15.76
2018-06-04T03:16:18.617Z,15.76
2018-06-04T03:17:18.623Z,15.78
2018-06-04T03:18:18.639Z,15.82
2018-06-04T03:19:18.647Z,15.89
2018-06-04T03:20:18.657Z,15.86
2018-06-04T03:21:18.668Z,15.97
2018-06-04T03:22:18.682Z,15.93
2018-06-04T03:23:18.695Z,15.92
2018-06-04T03:24:18.704Z,15.89
2018-06-04T03:25:18.714Z,15.70
2018-06-04T03:26:18.725Z,15.76
2018-06-04T03:27:18.737Z,15.67
2018-06-04T03:28:18.748Z,15.75
2018-06-04T03:29:18.755Z,15.64
2018-06-04T03:30:18.769Z,15.70
2018-06-04T03:31:18.786Z,15.74
2018-06-04T03:32:18.790Z,15.75
2018-06-04T03:33:18.801Z,15.81
2018-06-04T03:34:19.118Z,15.88
2018-06-04T03:35:18.822Z,15.81
2018-06-04T03:36:18.833Z,15.89
2018-06-04T03:37:18.846Z,15.94
2018-06-04T03:38:18.855Z,15.79
2018-06-04T03:39:18.870Z,15.79
2018-06-04T03:40:18.881Z,15.66
2018-06-04T03:41:18.889Z,15.68
2018-06-04T03:42:18.900Z,15.81
2018-06-04T03:43:18.910Z,15.72
2018-06-04T03:44:18.923Z,15.86
2018-06-04T03:45:18.933Z,15.85
2018-06-04T03:46:18.946Z,15.82
2018-06-04T03:47:18.955Z,15.88
2018-06-04T03:48:18.973Z,15.93
2018-06-04T03:49:18.980Z,15.99
2018-06-04T03:50:19.013Z,15.89
2018-06-04T03:51:18.999Z,15.76
2018-06-04T03:52:19.013Z,15.75
2018-06-04T03:53:19.022Z,15.76
2018-06-04T03:54:19.032Z,15.75
2018-06-04T03:55:19.047Z,15.72
2018-06-04T03:56:19.057Z,15.82
2018-06-04T03:57:19.067Z,15.97
2018-06-04T03:58:19.083Z,15.93
2018-06-04T03:59:19.089Z,15.93
2018-06-04T04:00:19.102Z,15.96
2018-06-04T04:01:19.107Z,15.93
2018-06-04T04:02:19.121Z,15.93
2018-06-04T04:03:19.142Z,15.96
2018-06-04T04:04:19.215Z,15.97
2018-06-04T04:05:19.158Z,15.92
2018-06-04T04:06:19.167Z,15.97
2018-06-04T04:07:19.178Z,16.00
2018-06-04T04:08:19.203Z,16.06
2018-06-04T04:09:19.199Z,16.18
2018-06-04T04:10:20.200Z,16.14
2018-06-04T04:11:19.224Z,16.12
2018-06-04T04:12:19.238Z,16.14
2018-06-04T04:13:19.243Z,16.15
2018-06-04T04:14:19.267Z,16.16
2018-06-04T04:15:19.268Z,16.11
2018-06-04T04:16:19.279Z,15.92
2018-06-04T04:17:19.293Z,15.75
2018-06-04T04:18:19.299Z,15.63
2018-06-04T04:19:19.318Z,15.49
2018-06-04T04:20:19.321Z,15.45
2018-06-04T04:21:19.341Z,15.49
2018-06-04T04:22:19.343Z,15.56
2018-06-04T04:23:19.357Z,15.46
2018-06-04T04:24:19.365Z,15.43
2018-06-04T04:25:19.379Z,15.57
2018-06-04T04:26:19.389Z,15.66
2018-06-04T04:27:19.399Z,15.78
2018-06-04T04:28:19.414Z,15.64
2018-06-04T04:29:19.420Z,15.75
2018-06-04T04:30:19.432Z,15.67
2018-06-04T04:31:19.442Z,15.70
2018-06-04T04:32:19.458Z,15.67
2018-06-04T04:33:19.468Z,15.67
2018-06-04T04:34:19.479Z,15.70
2018-06-04T04:35:19.490Z,15.68
2018-06-04T04:36:19.504Z,15.75
2018-06-04T04:37:19.510Z,15.75
2018-06-04T04:38:19.521Z,15.76
2018-06-04T04:39:19.532Z,15.75
2018-06-04T04:40:19.549Z,15.84
2018-06-04T04:41:19.558Z,15.81
2018-06-04T04:42:19.566Z,15.84
2018-06-04T04:43:19.578Z,15.89
2018-06-04T04:44:19.590Z,16.11
2018-06-04T04:45:19.608Z,16.14
2018-06-04T04:46:19.613Z,16.06
2018-06-04T04:47:19.623Z,16.15
2018-06-04T04:48:19.636Z,16.18
2018-06-04T04:49:19.645Z,16.37
2018-06-04T04:50:19.654Z,16.38
2018-06-04T04:51:19.676Z,16.40
2018-06-04T04:52:19.681Z,16.44
2018-06-04T04:53:19.691Z,16.49
2018-06-04T04:54:19.702Z,16.52
2018-06-04T04:55:19.715Z,16.45
2018-06-04T04:56:19.725Z,16.44
2018-06-04T04:57:19.736Z,16.42
2018-06-04T04:58:19.749Z,16.42
2018-06-04T04:59:19.757Z,16.48
2018-06-04T05:00:19.770Z,16.44
2018-06-04T05:01:19.785Z,16.40
2018-06-04T05:02:19.793Z,16.52
2018-06-04T05:03:19.805Z,16.56
2018-06-04T05:04:19.817Z,16.49
2018-06-04T05:05:19.826Z,16.48
2018-06-04T05:06:19.839Z,16.53
2018-06-04T05:07:19.849Z,16.65
2018-06-04T05:08:19.862Z,16.58
2018-06-04T05:09:19.872Z,16.55
2018-06-04T05:10:19.889Z,16.63
2018-06-04T05:11:19.896Z,16.68
2018-06-04T05:12:19.907Z,16.74
2018-06-04T05:13:19.919Z,16.74
2018-06-04T05:14:19.929Z,16.80
2018-06-04T05:15:19.942Z,16.83
2018-06-04T05:16:19.952Z,16.89
2018-06-04T05:17:19.966Z,16.85
2018-06-04T05:18:19.977Z,16.90
2018-06-04T05:19:19.991Z,16.99
2018-06-04T05:20:19.999Z,16.95
2018-06-04T05:21:20.011Z,16.95
2018-06-04T05:22:20.023Z,17.10
2018-06-04T05:23:20.037Z,17.00
2018-06-04T05:24:20.045Z,17.10
2018-06-04T05:25:20.057Z,17.14
2018-06-04T05:26:20.068Z,17.13
2018-06-04T05:27:20.081Z,17.22
2018-06-04T05:28:20.091Z,17.23
2018-06-04T05:29:20.102Z,17.17
2018-06-04T05:30:20.114Z,17.33
2018-06-04T05:31:20.127Z,17.48
2018-06-04T05:32:20.138Z,17.46
2018-06-04T05:33:20.151Z,17.57
2018-06-04T05:34:20.164Z,17.55
2018-06-04T05:35:20.172Z,17.63
2018-06-04T05:36:20.186Z,17.54
2018-06-04T05:37:20.197Z,17.71
2018-06-04T05:38:20.209Z,17.78
2018-06-04T05:39:20.220Z,17.76
2018-06-04T05:40:20.233Z,17.78
2018-06-04T05:41:20.246Z,17.81
2018-06-04T05:42:20.291Z,17.82
2018-06-04T05:43:20.273Z,17.82
2018-06-04T05:44:20.282Z,17.84
2018-06-04T05:45:20.297Z,17.76
2018-06-04T05:46:20.303Z,17.76
2018-06-04T05:47:20.316Z,17.69
2018-06-04T05:48:20.328Z,17.81
2018-06-04T05:49:20.338Z,17.78
2018-06-04T05:50:20.347Z,17.85
2018-06-04T05:51:20.367Z,17.87
2018-06-04T05:52:20.372Z,17.88
2018-06-04T05:53:20.388Z,18.00
2018-06-04T05:54:20.399Z,17.99
2018-06-04T05:55:20.415Z,18.00
2018-06-04T05:56:20.445Z,18.04
2018-06-04T05:57:20.435Z,17.99
2018-06-04T05:58:20.444Z,18.03
2018-06-04T05:59:20.456Z,18.12
2018-06-04T06:00:20.473Z,18.10
2018-06-04T06:01:20.485Z,18.07
2018-06-04T06:02:20.493Z,18.19
2018-06-04T06:03:20.505Z,18.27
2018-06-04T06:04:20.518Z,18.36
2018-06-04T06:05:20.531Z,18.37
2018-06-04T06:06:20.538Z,18.40
2018-06-04T06:07:20.551Z,18.43
2018-06-04T06:08:20.606Z,18.42
2018-06-04T06:09:20.578Z,18.61
2018-06-04T06:10:20.587Z,18.58
2018-06-04T06:11:20.601Z,18.62
2018-06-04T06:12:20.618Z,18.59
2018-06-04T06:13:20.626Z,18.57
2018-06-04T06:14:20.693Z,18.65
2018-06-04T06:15:20.649Z,18.68
2018-06-04T06:16:20.662Z,18.73
2018-06-04T06:17:20.668Z,18.73
2018-06-04T06:18:20.687Z,18.76
2018-06-04T06:19:20.695Z,18.74
2018-06-04T06:20:20.709Z,18.74
2018-06-04T06:21:20.719Z,18.82
2018-06-04T06:22:20.738Z,18.76
2018-06-04T06:23:20.741Z,18.82
2018-06-04T06:24:20.778Z,18.79
2018-06-04T06:25:20.851Z,18.84
2018-06-04T06:26:20.778Z,18.84
2018-06-04T06:27:20.793Z,18.92
2018-06-04T06:28:20.803Z,18.90
2018-06-04T06:29:20.816Z,18.99
2018-06-04T06:30:20.830Z,18.98
2018-06-04T06:31:20.843Z,18.98
2018-06-04T06:32:20.860Z,19.01
2018-06-04T06:33:20.869Z,19.02
2018-06-04T06:34:20.877Z,19.06
2018-06-04T06:35:20.890Z,19.11
2018-06-04T06:36:20.901Z,19.17
2018-06-04T06:37:20.912Z,19.21
2018-06-04T06:38:20.925Z,19.21
2018-06-04T06:39:20.939Z,19.21
2018-06-04T06:40:20.956Z,19.28
2018-06-04T06:41:20.972Z,19.24
2018-06-04T06:42:20.981Z,19.23
2018-06-04T06:43:20.989Z,19.24
2018-06-04T06:44:21.002Z,19.20
2018-06-04T06:45:21.015Z,19.14
2018-06-04T06:46:21.026Z,19.15
2018-06-04T06:47:21.048Z,19.21
2018-06-04T06:48:21.055Z,19.20
2018-06-04T06:49:21.065Z,19.24
2018-06-04T06:50:21.076Z,19.24
2018-06-04T06:51:21.090Z,19.31
2018-06-04T06:52:21.104Z,19.32
2018-06-04T06:53:21.112Z,19.33
2018-06-04T06:54:23.744Z,19.33
2018-06-04T06:55:21.147Z,19.46
2018-06-04T06:56:21.151Z,19.48
2018-06-04T06:57:21.160Z,19.54
2018-06-04T06:58:21.174Z,19.54
2018-06-04T06:59:21.186Z,19.54
2018-06-04T07:00:21.201Z,19.75
2018-06-04T07:01:21.216Z,20.03
2018-06-04T07:02:21.227Z,20.08
2018-06-04T07:03:21.240Z,20.10
2018-06-04T07:04:21.249Z,20.13
2018-06-04T07:05:21.264Z,20.18
2018-06-04T07:06:21.276Z,20.42
2018-06-04T07:07:21.291Z,20.38
2018-06-04T07:08:21.301Z,20.39
2018-06-04T07:09:21.313Z,20.33
2018-06-04T07:10:21.324Z,20.42
2018-06-04T07:11:21.339Z,20.31
2018-06-04T07:12:21.350Z,20.47
2018-06-04T07:13:21.364Z,20.47
2018-06-04T07:14:21.432Z,20.47
2018-06-04T07:15:21.389Z,20.61
2018-06-04T07:16:21.422Z,20.65
2018-06-04T07:17:21.414Z,20.76
2018-06-04T07:18:21.427Z,20.72
2018-06-04T07:19:21.439Z,20.68
2018-06-04T07:20:21.460Z,20.86
2018-06-04T07:21:21.519Z,20.89
2018-06-04T07:22:21.479Z,20.86
2018-06-04T07:23:21.489Z,20.98
2018-06-04T07:24:21.505Z,20.99
2018-06-04T07:25:21.519Z,21.13
2018-06-04T07:26:21.530Z,21.20
2018-06-04T07:27:21.547Z,21.26
2018-06-04T07:28:21.557Z,21.30
2018-06-04T07:29:21.570Z,21.26
2018-06-04T07:30:21.581Z,21.24
2018-06-04T07:31:21.594Z,21.24
2018-06-04T07:32:21.608Z,21.20
2018-06-04T07:33:21.622Z,21.17
2018-06-04T07:35:27.115Z,21.09
2018-06-04T07:36:22.648Z,21.14
2018-06-04T07:37:22.160Z,21.09
2018-06-04T07:38:22.036Z,21.14
2018-06-04T07:39:22.011Z,21.23
2018-06-04T07:40:21.914Z,21.30
2018-06-04T07:41:21.790Z,21.32
2018-06-04T07:42:21.793Z,21.39
2018-06-04T07:43:21.920Z,21.44
2018-06-04T07:44:21.851Z,21.44
2018-06-04T07:45:21.793Z,21.45
2018-06-04T07:46:21.822Z,21.46
2018-06-04T07:47:21.838Z,21.63
2018-06-04T07:48:21.819Z,21.64
2018-06-04T07:49:21.847Z,21.61
2018-06-04T07:50:21.843Z,21.67
2018-06-04T07:51:21.862Z,21.72
2018-06-04T07:52:21.871Z,21.72
2018-06-04T07:53:21.896Z,21.67
2018-06-04T07:54:31.101Z,21.81
2018-06-04T07:56:35.596Z,22.02
2018-06-04T07:57:38.979Z,22.09
2018-06-04T07:59:32.125Z,22.23
2018-06-04T08:00:31.966Z,22.25
2018-06-04T08:01:32.316Z,22.17
2018-06-04T08:02:42.268Z,22.29
2018-06-04T08:04:36.994Z,22.34
2018-06-04T08:05:36.581Z,22.34
2018-06-04T08:07:42.145Z,22.32
2018-06-04T08:08:42.745Z,22.20
2018-06-04T08:12:30.182Z,22.12
2018-06-04T08:13:30.308Z,22.23
2018-06-04T08:14:30.475Z,22.22
2018-06-04T08:15:38.272Z,22.32
2018-06-04T08:17:34.722Z,22.46
2018-06-04T08:18:34.806Z,22.49
2018-06-04T08:20:39.300Z,22.57
2018-06-04T08:21:39.255Z,22.69
2018-06-04T08:23:43.910Z,22.80
2018-06-04T08:24:43.796Z,22.78
2018-06-04T08:26:49.323Z,22.72
2018-06-04T08:27:49.355Z,22.72
2018-06-04T08:29:53.853Z,22.92
2018-06-04T08:30:54.126Z,22.87
2018-06-04T08:32:58.474Z,22.94
2018-06-04T08:33:58.459Z,22.99
2018-06-04T08:36:02.993Z,23.07
2018-06-04T08:37:02.967Z,23.12
2018-06-04T08:39:07.635Z,23.15
2018-06-04T08:40:07.411Z,23.20
2018-06-04T08:42:01.021Z,23.27
2018-06-04T08:43:00.847Z,23.35
2018-06-04T08:45:05.511Z,23.43
2018-06-04T08:46:05.360Z,23.45
2018-06-04T08:48:18.693Z,23.46
2018-06-04T08:49:09.986Z,23.39
2018-06-04T08:51:18.934Z,23.32
2018-06-04T08:52:19.029Z,23.29
2018-06-04T08:54:23.599Z,23.31
2018-06-04T08:55:23.452Z,23.42
2018-06-04T08:57:35.844Z,23.52
2018-06-04T08:58:27.987Z,23.47
2018-06-04T09:00:45.340Z,23.58
2018-06-04T09:01:43.872Z,23.71
2018-06-04T09:03:49.919Z,23.67
2018-06-04T09:04:40.546Z,23.64
2018-06-04T09:05:40.636Z,23.71
2018-06-04T09:06:40.815Z,23.76
2018-06-04T09:07:40.719Z,23.79
2018-06-04T09:08:40.709Z,23.80
2018-06-04T09:09:40.623Z,23.87
2018-06-04T09:10:40.672Z,23.89
2018-06-04T09:11:40.654Z,23.87
2018-06-04T09:12:40.675Z,23.83
2018-06-04T09:13:40.681Z,23.89
2018-06-04T09:14:40.690Z,23.89
2018-06-04T09:15:40.749Z,23.89
2018-06-04T09:16:40.752Z,24.00
2018-06-04T09:17:40.733Z,23.92
2018-06-04T09:18:40.758Z,23.95
2018-06-04T09:19:40.761Z,23.97
2018-06-04T09:20:40.782Z,23.95
2018-06-04T09:21:40.793Z,24.02
2018-06-04T09:22:40.836Z,24.12
2018-06-04T09:23:40.835Z,24.27
2018-06-04T09:24:40.842Z,24.29
2018-06-04T09:25:40.847Z,24.38
2018-06-04T09:26:40.865Z,24.32
2018-06-04T09:27:40.878Z,24.41
2018-06-04T09:28:40.896Z,24.52
2018-06-04T09:29:40.907Z,24.60
2018-06-04T09:30:40.923Z,24.64
2018-06-04T09:31:40.934Z,24.68
2018-06-04T09:32:40.971Z,24.61
2018-06-04T09:33:40.984Z,24.53
2018-06-04T09:34:40.981Z,24.73
2018-06-04T09:35:40.997Z,24.61
2018-06-04T09:36:41.008Z,24.68
2018-06-04T09:37:41.076Z,24.68
2018-06-04T09:38:41.039Z,24.69
2018-06-04T09:39:41.067Z,24.69
2018-06-04T09:40:41.073Z,24.73
2018-06-04T09:41:51.515Z,24.87
2018-06-04T09:43:50.554Z,24.92
2018-06-04T09:44:50.089Z,24.90
2018-06-04T09:46:54.877Z,24.88
2018-06-04T09:48:02.362Z,25.00
2018-06-04T09:49:59.340Z,25.02
2018-06-04T09:51:08.125Z,25.05
2018-06-04T09:53:04.838Z,25.06
2018-06-04T09:54:12.572Z,25.10
2018-06-04T09:56:17.951Z,25.25
2018-06-04T09:57:09.243Z,25.31
2018-06-04T09:59:13.897Z,25.32
2018-06-04T10:00:13.782Z,25.28
2018-06-04T10:02:07.184Z,25.39
2018-06-04T10:03:15.035Z,25.42
2018-06-04T10:05:11.763Z,25.28
2018-06-04T10:07:45.229Z,25.27
2018-06-04T10:08:45.161Z,25.38
2018-06-04T10:09:53.925Z,25.47
2018-06-04T10:11:49.803Z,25.57
2018-06-04T10:12:50.443Z,25.52
2018-06-04T10:15:06.326Z,25.57
2018-06-04T10:16:02.282Z,25.62
2018-06-04T10:18:08.858Z,25.34
2018-06-04T10:18:59.700Z,25.38
2018-06-04T10:19:59.868Z,25.46
2018-06-04T10:21:09.241Z,25.53
2018-06-04T10:23:08.980Z,25.77
2018-06-04T10:23:56.040Z,25.74
2018-06-04T10:24:55.684Z,25.87
2018-06-04T10:25:55.717Z,25.99
2018-06-04T10:26:55.651Z,25.91
2018-06-04T10:27:55.683Z,25.83
2018-06-04T10:28:55.679Z,25.74
2018-06-04T10:29:55.689Z,25.77
2018-06-04T10:30:55.708Z,25.87
2018-06-04T10:31:56.211Z,25.91
2018-06-04T10:32:55.729Z,26.06
2018-06-04T10:33:55.749Z,26.21
2018-06-04T10:34:55.798Z,26.11
2018-06-04T10:35:55.779Z,26.17
2018-06-04T10:36:55.790Z,26.15
2018-06-04T10:37:55.881Z,26.24
2018-06-04T10:38:55.821Z,26.18
2018-06-04T10:39:55.858Z,26.31
2018-06-04T10:40:55.861Z,26.25
2018-06-04T10:41:56.669Z,26.27
2018-06-04T10:42:55.885Z,26.20
2018-06-04T10:43:55.899Z,26.12
2018-06-04T10:44:55.917Z,26.01
2018-06-04T10:45:55.935Z,26.09
2018-06-04T10:46:55.946Z,26.17
2018-06-04T10:47:55.961Z,26.20
2018-06-04T10:48:55.992Z,26.29
2018-06-04T10:49:55.993Z,26.42
2018-06-04T10:50:56.009Z,26.43
2018-06-04T10:51:56.023Z,26.43
2018-06-04T10:52:56.042Z,26.40
2018-06-04T10:53:56.056Z,26.29
2018-06-04T10:54:56.096Z,26.15
2018-06-04T10:55:56.085Z,26.20
2018-06-04T10:56:56.107Z,26.12
2018-06-04T10:57:56.117Z,26.18
2018-06-04T10:58:56.141Z,26.22
2018-06-04T10:59:56.149Z,26.40
2018-06-04T11:00:56.170Z,26.55
2018-06-04T11:01:56.179Z,26.57
2018-06-04T11:02:56.196Z,26.79
2018-06-04T11:03:56.215Z,26.79
2018-06-04T11:04:56.274Z,26.81
2018-06-04T11:05:56.242Z,26.96
2018-06-04T11:06:56.302Z,26.99
2018-06-04T11:07:56.278Z,26.89
2018-06-04T11:08:56.291Z,27.10
2018-06-04T11:09:56.305Z,27.20
2018-06-04T11:10:56.322Z,27.26
2018-06-04T11:11:56.335Z,27.35
2018-06-04T11:12:56.396Z,27.38
2018-06-04T11:13:56.370Z,27.39
2018-06-04T11:14:56.382Z,27.36
2018-06-04T11:15:56.399Z,27.61
2018-06-04T11:16:56.415Z,27.73
2018-06-04T11:17:56.434Z,27.74
2018-06-04T11:18:56.477Z,27.76
2018-06-04T11:19:56.477Z,27.84
2018-06-04T11:20:56.480Z,27.94
2018-06-04T11:21:56.502Z,27.99
2018-06-04T11:22:56.521Z,27.94
2018-06-04T11:23:56.539Z,27.94
2018-06-04T11:24:56.563Z,27.99
2018-06-04T11:25:56.582Z,27.96
2018-06-04T11:26:56.583Z,27.95
2018-06-04T11:27:56.594Z,27.91
2018-06-04T11:28:56.627Z,28.09
2018-06-04T11:29:56.649Z,28.25
2018-06-04T11:30:56.646Z,28.60
2018-06-04T11:31:56.663Z,29.04
2018-06-04T11:32:56.686Z,29.34
2018-06-04T11:33:56.707Z,29.74
2018-06-04T11:34:56.723Z,30.18
2018-06-04T11:35:56.735Z,30.61
2018-06-04T11:36:56.755Z,31.05
2018-06-04T11:37:56.771Z,31.61
2018-06-04T11:38:56.795Z,32.03
2018-06-04T11:39:56.813Z,32.18
2018-06-04T11:40:56.832Z,32.51
2018-06-04T11:41:56.863Z,32.85
2018-06-04T11:42:56.883Z,33.22
2018-06-04T11:43:56.955Z,33.14
2018-06-04T11:44:56.920Z,33.60
2018-06-04T11:45:56.941Z,33.95
2018-06-04T11:46:56.966Z,33.08
2018-06-04T11:47:56.986Z,33.04
2018-06-04T11:48:57.022Z,31.45
2018-06-04T11:49:57.033Z,32.17
2018-06-04T11:50:57.061Z,32.59
2018-06-04T11:51:57.086Z,33.27
2018-06-04T11:52:57.105Z,33.46
2018-06-04T11:53:57.130Z,33.70
2018-06-04T11:54:57.175Z,33.78
2018-06-04T11:55:57.180Z,33.98
2018-06-04T11:56:57.200Z,33.87
2018-06-04T11:57:57.227Z,34.38
2018-06-04T11:58:57.252Z,34.72
2018-06-04T11:59:57.279Z,34.88
2018-06-04T12:00:57.302Z,35.15
2018-06-04T12:01:57.375Z,35.01
2018-06-04T12:02:57.356Z,34.61
2018-06-04T12:03:57.387Z,34.44
2018-06-04T12:04:57.411Z,34.73
2018-06-04T12:05:57.469Z,34.95
2018-06-04T12:06:57.462Z,34.91
2018-06-04T12:07:57.495Z,35.13
2018-06-04T12:08:57.526Z,34.79
2018-06-04T12:09:57.543Z,34.17
2018-06-04T12:10:57.569Z,33.85
2018-06-04T12:11:57.595Z,34.36
2018-06-04T12:12:57.630Z,34.58
2018-06-04T12:13:57.651Z,34.89
2018-06-04T12:14:57.677Z,35.35
2018-06-04T12:15:57.705Z,34.96
2018-06-04T12:16:57.743Z,34.64
2018-06-04T12:17:57.769Z,34.05
2018-06-04T12:18:57.805Z,34.05
2018-06-04T12:19:57.816Z,34.34
2018-06-04T12:20:57.846Z,34.60
2018-06-04T12:21:57.890Z,34.99
2018-06-04T12:22:57.900Z,35.10
2018-06-04T12:23:57.938Z,35.55
2018-06-04T12:24:57.959Z,35.21
2018-06-04T12:25:57.983Z,35.01
2018-06-04T12:26:58.008Z,34.98
2018-06-04T12:27:58.035Z,34.95
2018-06-04T12:28:58.063Z,34.64
2018-06-04T12:29:58.106Z,34.99
2018-06-04T12:30:58.116Z,35.21
2018-06-04T12:31:58.140Z,35.33
2018-06-04T12:32:58.165Z,35.77
2018-06-04T12:33:58.191Z,36.21
2018-06-04T12:34:58.225Z,36.24
2018-06-04T12:35:58.268Z,36.29
2018-06-04T12:36:58.268Z,35.86
2018-06-04T12:37:58.290Z,36.06
2018-06-04T12:38:58.315Z,35.64
2018-06-04T12:39:58.339Z,35.33
2018-06-04T12:40:58.361Z,35.82
2018-06-04T12:41:58.392Z,36.03
2018-06-04T12:42:58.409Z,35.63
2018-06-04T12:43:58.445Z,34.57
2018-06-04T12:44:58.460Z,34.80
2018-06-04T12:45:58.480Z,34.94
2018-06-04T12:46:58.501Z,35.29
2018-06-04T12:47:58.533Z,35.58
2018-06-04T12:48:58.550Z,36.00
2018-06-04T12:49:58.573Z,36.14
2018-06-04T12:50:58.598Z,36.41
2018-06-04T12:51:58.619Z,36.61
2018-06-04T12:52:58.650Z,36.00
2018-06-04T12:53:58.670Z,36.27
2018-06-04T12:54:58.694Z,36.01
2018-06-04T12:55:58.726Z,36.46
2018-06-04T12:56:58.745Z,36.73
2018-06-04T12:57:58.769Z,37.02
2018-06-04T12:58:58.793Z,36.97
2018-06-04T12:59:58.817Z,37.39
2018-06-04T13:00:58.844Z,37.36
2018-06-04T13:01:58.873Z,37.38
2018-06-04T13:02:58.908Z,37.36
2018-06-04T13:03:58.940Z,37.77
2018-06-04T13:04:59.070Z,37.67
2018-06-04T13:05:58.994Z,37.76
2018-06-04T13:06:59.008Z,37.29
2018-06-04T13:07:59.033Z,36.33
2018-06-04T13:08:59.065Z,36.51
2018-06-04T13:09:59.098Z,36.87
2018-06-04T13:10:59.119Z,37.07
2018-06-04T13:11:59.148Z,37.33
2018-06-04T13:12:59.184Z,37.88
2018-06-04T13:13:59.203Z,37.54
2018-06-04T13:14:59.230Z,37.81
2018-06-04T13:15:59.262Z,37.81
2018-06-04T13:16:59.291Z,37.62
2018-06-04T13:17:59.318Z,37.59
2018-06-04T13:19:00.199Z,37.99
2018-06-04T13:19:59.374Z,37.92
2018-06-04T13:20:59.407Z,37.46
2018-06-04T13:21:59.441Z,37.43
2018-06-04T13:22:59.463Z,37.62
2018-06-04T13:23:59.496Z,37.36
2018-06-04T13:24:59.521Z,37.20
2018-06-04T13:25:59.550Z,36.99
2018-06-04T13:26:59.580Z,37.19
2018-06-04T13:27:59.612Z,37.46
2018-06-04T13:28:59.645Z,38.23
2018-06-04T13:29:59.676Z,37.68
2018-06-04T13:30:59.693Z,37.83
2018-06-04T13:31:59.723Z,37.23